Time;durP1;ratioP1;P1;durP2;ratioP2;P2;SDS_P1;SDS_P2;PMS_P1;PMS_P2;Temp;Humidity;BMP_temperature;BMP_pressure;BME280_temperature;BME280_humidity;BME280_pressure;Samples;Min_cycle;Max_cycle;Signal;HPM_P1;HPM_P2
2022/01/17 00:00:34;;;;;;;1.65;0.82;;;;;;;7.46;97.52;101416.91;4949924;28;20043;-70
2022/01/17 00:03:00;;;;;;;4.57;0.52;;;;;;;7.46;97.38;101408.06;4955221;28;20039;-71
2022/01/17 00:05:28;;;;;;;0.75;0.30;;;;;;;7.57;97.28;101412.03;4954783;28;20069;-71
2022/01/17 00:07:54;;;;;;;0.25;0.25;;;;;;;7.50;97.38;101388.38;4954725;28;20039;-70
2022/01/17 00:10:19;;;;;;;0.65;0.30;;;;;;;7.36;98.67;101387.75;4947817;28;20412;-71
2022/01/17 00:12:51;;;;;;;1.88;0.82;;;;;;;7.41;98.17;101387.59;4965171;28;20385;-70
2022/01/17 00:15:28;;;;;;;0.98;0.45;;;;;;;7.43;98.75;101392.66;4964248;28;20067;-71
2022/01/17 00:18:20;;;;;;;6.43;0.75;;;;;;;7.42;99.13;101397.22;4946140;28;20059;-71
2022/01/17 00:20:40;;;;;;;2.38;0.47;;;;;;;7.42;98.58;101378.44;4962566;28;20038;-71
2022/01/17 00:23:06;;;;;;;2.05;0.73;;;;;;;7.44;98.92;101370.88;4954564;28;20046;-70
2022/01/17 00:25:31;;;;;;;6.50;0.60;;;;;;;7.52;98.00;101378.13;4944504;28;20031;-70
2022/01/17 00:27:57;;;;;;;0.60;0.55;;;;;;;7.43;98.78;101368.53;4953304;28;20496;-71
2022/01/17 00:30:22;;;;;;;0.70;0.50;;;;;;;7.35;98.94;101370.13;4952494;28;20492;-71
2022/01/17 00:32:50;;;;;;;0.30;0.30;;;;;;;7.53;97.57;101369.00;4952923;28;20027;-71
2022/01/17 00:35:16;;;;;;;4.22;1.23;;;;;;;7.44;97.47;101375.44;4952452;28;20031;-71
2022/01/17 00:37:41;;;;;;;0.32;0.20;;;;;;;7.56;96.29;101357.66;4953795;28;20074;-71
2022/01/17 00:40:07;;;;;;;5.45;0.95;;;;;;;7.51;97.01;101370.44;4952349;28;20061;-71
2022/01/17 00:42:33;;;;;;;4.90;0.75;;;;;;;7.35;97.58;101374.69;4952979;28;20031;-70
2022/01/17 00:45:01;;;;;;;4.28;0.75;;;;;;;7.49;96.29;101378.75;4957774;28;20053;-70
2022/01/17 00:47:27;;;;;;;4.95;0.52;;;;;;;7.56;95.13;101357.66;4949893;28;20058;-70
2022/01/17 00:49:52;;;;;;;5.95;0.70;;;;;;;7.50;95.64;101347.41;4952224;28;20519;-70
2022/01/17 00:52:18;;;;;;;0.80;0.68;;;;;;;7.66;94.06;101376.09;4952146;28;20050;-71
2022/01/17 00:54:43;;;;;;;4.35;0.98;;;;;;;7.64;94.44;101369.47;4949917;28;20039;-70
2022/01/17 00:57:11;;;;;;;3.97;0.32;;;;;;;7.65;93.64;101385.22;4959350;28;20499;-70
2022/01/17 00:59:37;;;;;;;0.65;0.45;;;;;;;7.65;93.81;101387.09;4952389;28;20042;-71
2022/01/17 01:02:05;;;;;;;0.82;0.30;;;;;;;7.59;93.66;101394.53;4948007;29;20039;-70
2022/01/17 01:04:30;;;;;;;0.10;0.10;;;;;;;7.66;92.89;101386.03;4954746;28;20050;-70
2022/01/17 01:06:56;;;;;;;0.47;0.20;;;;;;;7.64;93.25;101378.31;4959777;28;20039;-70
2022/01/17 01:09:22;;;;;;;9.13;0.70;;;;;;;7.62;93.37;101385.88;4953112;28;20035;-70
2022/01/17 01:11:48;;;;;;;3.22;0.50;;;;;;;7.71;92.54;101372.44;4953565;28;20042;-71
2022/01/17 01:14:14;;;;;;;0.20;0.20;;;;;;;7.71;92.74;101385.84;4958850;28;20039;-70
2022/01/17 01:16:39;;;;;;;1.15;1.10;;;;;;;7.71;93.21;101377.81;4972971;28;20040;-71
2022/01/17 01:19:19;;;;;;;3.47;0.32;;;;;;;7.62;93.99;101385.06;4943358;28;20078;-70
2022/01/17 01:29:55;;;;;;;3.60;0.90;;;;;;;7.68;94.35;101373.09;4977665;28;20031;-70
2022/01/17 01:32:24;;;;;;;6.25;0.77;;;;;;;7.76;94.27;101374.97;4934497;29;20123;-71
2022/01/17 01:34:53;;;;;;;0.20;0.20;;;;;;;7.77;93.37;101381.91;4945354;28;20035;-71
2022/01/17 01:37:18;;;;;;;1.95;0.43;;;;;;;7.78;93.42;101354.00;4957713;28;20065;-71
2022/01/17 01:39:46;;;;;;;0.30;0.25;;;;;;;7.72;93.78;101356.06;4959149;28;20604;-71
2022/01/17 01:42:17;;;;;;;0.20;0.20;;;;;;;7.78;93.27;101354.75;4953077;28;20046;-71
2022/01/17 01:44:43;;;;;;;;;;;;;;;7.73;92.95;101352.25;4949245;28;20058;-71
2022/01/17 01:47:09;;;;;;;5.78;0.65;;;;;;;7.70;93.72;101338.72;4952095;28;19945;-71
2022/01/17 01:49:34;;;;;;;1.02;0.43;;;;;;;7.69;94.25;101329.88;4951064;29;20452;-71
2022/01/17 01:51:59;;;;;;;0.70;0.32;;;;;;;7.87;93.78;101333.31;4952978;29;20027;-71
2022/01/17 01:54:25;;;;;;;0.57;0.35;;;;;;;7.93;93.53;101343.56;4948424;29;20035;-71
2022/01/17 01:56:52;;;;;;;0.57;0.43;;;;;;;7.93;93.13;101337.41;4932209;29;20043;-71
2022/01/17 01:59:20;;;;;;;1.35;0.30;;;;;;;7.71;94.41;101338.38;4933808;29;20027;-71
2022/01/17 02:01:46;;;;;;;4.25;0.35;;;;;;;7.80;93.86;101323.06;4933615;29;20036;-71
2022/01/17 02:04:13;;;;;;;4.50;0.30;;;;;;;7.88;93.54;101326.81;4955493;28;20105;-71
2022/01/17 02:06:39;;;;;;;2.08;0.73;;;;;;;7.86;93.35;101324.47;4949997;28;20037;-70
2022/01/17 02:09:05;;;;;;;1.48;0.93;;;;;;;7.90;93.32;101343.38;4967755;28;20431;-71
2022/01/17 02:11:34;;;;;;;2.40;0.40;;;;;;;7.92;92.89;101328.56;4936186;29;20031;-71
2022/01/17 02:14:00;;;;;;;2.35;0.52;;;;;;;7.98;92.34;101334.53;4951747;29;20432;-71
2022/01/17 02:16:29;;;;;;;0.35;0.35;;;;;;;7.93;93.08;101327.47;4940981;29;20035;-71
2022/01/17 02:18:56;;;;;;;1.67;0.60;;;;;;;8.00;92.90;101319.72;4953209;28;20038;-71
2022/01/17 02:23:57;;;;;;;2.80;0.90;;;;;;;7.99;93.37;101322.72;4936874;28;20045;-71
2022/01/17 02:26:23;;;;;;;1.88;0.32;;;;;;;7.96;93.11;101331.38;4933890;29;20035;-71
2022/01/17 02:28:51;;;;;;;0.32;0.32;;;;;;;7.94;92.64;101328.22;4937440;28;20101;-71
2022/01/17 02:31:17;;;;;;;5.25;0.65;;;;;;;7.82;94.23;101322.78;4958310;28;20093;-71
2022/01/17 02:33:43;;;;;;;2.13;0.32;;;;;;;7.91;93.67;101297.50;4966694;28;20039;-71
2022/01/17 02:36:10;;;;;;;0.40;0.40;;;;;;;7.85;94.25;101322.13;4949955;28;20448;-70
2022/01/17 02:38:38;;;;;;;1.60;0.52;;;;;;;7.90;93.47;101333.47;4967139;28;20027;-71
2022/01/17 02:41:07;;;;;;;3.78;0.63;;;;;;;7.94;93.62;101314.81;4948082;29;20039;-71
2022/01/17 02:43:33;;;;;;;8.55;0.95;;;;;;;7.99;93.81;101322.72;4950170;28;20133;-71
2022/01/17 02:48:27;;;;;;;2.75;0.93;;;;;;;8.04;94.12;101325.22;4966752;28;20511;-71
2022/01/17 02:50:53;;;;;;;1.88;0.70;;;;;;;7.91;93.90;101327.00;4944005;28;20063;-70
2022/01/17 02:53:20;;;;;;;2.35;1.40;;;;;;;7.89;95.08;101318.50;4933641;29;20046;-71
2022/01/17 02:55:51;;;;;;;4.25;0.70;;;;;;;7.95;93.79;101309.16;4936048;29;20074;-71
2022/01/17 02:58:19;;;;;;;1.05;0.38;;;;;;;7.99;94.38;101295.91;4968345;28;20039;-71
2022/01/17 03:00:47;;;;;;;8.30;0.50;;;;;;;7.97;94.46;101295.44;4941855;28;20082;-71
2022/01/17 03:03:14;;;;;;;8.50;0.30;;;;;;;8.01;94.46;101288.31;4961779;28;20086;-71
2022/01/17 03:05:40;;;;;;;2.92;0.52;;;;;;;7.94;95.00;101271.94;4942854;28;20044;-70
2022/01/17 03:08:05;;;;;;;1.02;0.35;;;;;;;8.02;93.99;101279.94;4936960;29;20485;-71
2022/01/17 03:10:40;;;;;;;1.88;0.30;;;;;;;7.99;94.33;101277.91;4966380;28;20578;-71
2022/01/17 03:13:13;;;;;;;1.08;0.38;;;;;;;8.05;95.20;101275.84;4955469;28;20031;-71
2022/01/17 03:15:39;;;;;;;1.58;0.50;;;;;;;8.12;94.33;101268.06;4953496;28;20101;-71
2022/01/17 03:18:05;;;;;;;3.20;0.88;;;;;;;8.16;94.29;101285.09;4960417;28;20491;-70
2022/01/17 03:20:31;;;;;;;4.25;0.65;;;;;;;8.18;94.18;101280.19;4963149;28;20035;-71
2022/01/17 03:22:57;;;;;;;2.78;1.15;;;;;;;8.02;94.84;101271.09;4948144;28;20098;-71
2022/01/17 03:25:23;;;;;;;0.28;0.22;;;;;;;8.01;95.14;101272.22;4968858;28;20126;-70
2022/01/17 03:27:49;;;;;;;0.55;0.30;;;;;;;8.12;95.34;101263.50;4967413;23;20829;-72
2022/01/17 03:30:14;;;;;;;1.17;0.55;;;;;;;8.20;94.86;101261.88;4958119;28;20043;-71
2022/01/17 03:32:40;;;;;;;0.10;0.10;;;;;;;8.12;95.02;101266.19;4954323;28;20653;-70
2022/01/17 03:35:07;;;;;;;0.38;0.38;;;;;;;8.20;95.23;101259.19;4966381;28;20395;-71
2022/01/17 03:37:32;;;;;;;0.40;0.40;;;;;;;8.07;95.70;101268.25;4959788;28;20031;-70
2022/01/17 03:39:58;;;;;;;0.10;0.10;;;;;;;8.08;95.89;101267.94;4948694;28;20523;-71
2022/01/17 03:42:24;;;;;;;1.98;0.90;;;;;;;8.11;95.36;101256.56;4951285;29;20064;-70
2022/01/17 03:44:50;;;;;;;1.35;0.30;;;;;;;8.04;96.38;101256.28;4952200;28;20106;-71
2022/01/17 03:47:15;;;;;;;3.10;0.77;;;;;;;8.15;95.46;101278.16;4973672;28;20041;-70
2022/01/17 03:49:44;;;;;;;3.10;0.32;;;;;;;8.21;94.67;101274.16;4953283;28;20129;-70
2022/01/17 03:52:09;;;;;;;1.90;0.57;;;;;;;8.13;95.56;101248.19;4939044;28;20027;-71
2022/01/17 03:54:35;;;;;;;0.47;0.30;;;;;;;8.18;95.53;101259.53;4947920;28;20053;-70
2022/01/17 03:57:01;;;;;;;2.10;0.52;;;;;;;8.06;95.63;101261.31;4960110;28;20086;-70
2022/01/17 03:59:27;;;;;;;2.33;0.30;;;;;;;7.95;96.13;101268.94;4953728;28;20046;-70
2022/01/17 04:01:52;;;;;;;0.80;0.80;;;;;;;8.13;95.85;101277.69;4952943;28;20031;-70
2022/01/17 04:04:18;;;;;;;4.30;0.38;;;;;;;8.14;96.29;101288.09;4952096;29;20595;-71
2022/01/17 04:06:44;;;;;;;2.72;0.80;;;;;;;8.13;95.53;101285.72;4953704;28;20039;-71
2022/01/17 04:09:10;;;;;;;0.47;0.47;;;;;;;8.19;95.65;101279.06;4969049;28;20043;-71
2022/01/17 04:11:36;;;;;;;2.00;0.38;;;;;;;8.16;95.48;101277.06;4949640;28;20039;-70
2022/01/17 04:14:03;;;;;;;3.42;0.60;;;;;;;8.11;94.90;101269.16;4955338;28;20122;-71
2022/01/17 04:16:29;;;;;;;0.82;0.22;;;;;;;8.15;95.29;101275.47;4958097;28;20049;-71
2022/01/17 04:18:55;;;;;;;1.05;0.30;;;;;;;8.21;95.15;101279.53;4952839;28;20117;-71
2022/01/17 04:21:20;;;;;;;3.75;0.80;;;;;;;8.23;95.22;101268.50;4953247;28;20042;-71
2022/01/17 04:23:47;;;;;;;1.10;0.82;;;;;;;8.14;96.22;101281.94;4950053;28;20034;-70
2022/01/17 04:26:12;;;;;;;1.27;0.70;;;;;;;8.17;95.87;101275.94;4970499;28;20038;-70
2022/01/17 04:28:38;;;;;;;3.28;0.82;;;;;;;8.06;96.20;101267.47;4954777;28;20118;-71
2022/01/17 04:31:03;;;;;;;3.33;0.70;;;;;;;8.21;95.60;101266.91;4949165;28;20048;-71
2022/01/17 04:33:29;;;;;;;0.10;0.10;;;;;;;8.19;95.11;101282.56;4977368;28;20035;-71
2022/01/17 04:35:54;;;;;;;0.45;0.38;;;;;;;8.18;95.47;101272.94;4952818;28;20038;-70
2022/01/17 04:38:20;;;;;;;4.45;0.65;;;;;;;8.21;96.02;101263.44;4952076;28;20186;-70
2022/01/17 04:40:48;;;;;;;4.65;1.20;;;;;;;8.32;95.59;101240.56;4948689;28;20081;-71
2022/01/17 04:43:21;;;;;;;8.05;0.98;;;;;;;8.37;94.98;101269.06;4954793;28;20031;-71
2022/01/17 04:45:48;;;;;;;0.30;0.30;;;;;;;8.21;96.05;101266.13;4950618;28;20171;-71
2022/01/17 04:48:13;;;;;;;0.88;0.35;;;;;;;8.21;96.71;101258.06;4956096;28;20110;-72
2022/01/17 04:50:39;;;;;;;0.88;0.47;;;;;;;8.32;96.06;101255.84;4953240;28;20483;-72
2022/01/17 04:53:06;;;;;;;2.88;0.30;;;;;;;8.32;96.02;101270.06;4961069;28;20041;-72
2022/01/17 04:55:33;;;;;;;0.75;0.40;;;;;;;8.40;97.00;101274.56;4947489;28;20035;-71
2022/01/17 04:57:58;;;;;;;1.05;0.80;;;;;;;8.36;98.46;101262.16;4947295;28;20047;-71
2022/01/17 05:00:26;;;;;;;1.17;0.60;;;;;;;8.44;99.02;101264.78;4951162;29;20071;-72
2022/01/17 05:02:52;;;;;;;2.55;0.20;;;;;;;8.32;98.38;101262.03;4950621;28;20035;-71
2022/01/17 05:05:18;;;;;;;0.35;0.30;;;;;;;8.27;99.15;101227.31;4951850;28;20503;-71
2022/01/17 05:07:44;;;;;;;0.70;0.25;;;;;;;8.32;99.95;101250.50;4949405;28;20039;-71
2022/01/17 05:10:12;;;;;;;1.95;1.08;;;;;;;8.34;99.05;101232.16;4966341;28;20115;-72
2022/01/17 05:12:38;;;;;;;4.80;0.80;;;;;;;8.28;99.00;101238.84;4968414;28;20034;-71
2022/01/17 05:15:09;;;;;;;9.50;1.10;;;;;;;8.34;99.42;101243.69;4971248;28;20050;-71
2022/01/17 05:17:42;;;;;;;0.95;0.77;;;;;;;8.37;99.16;101237.66;4950987;28;20039;-71
2022/01/17 05:20:08;;;;;;;6.40;1.35;;;;;;;8.51;99.08;101245.47;4949838;28;20560;-70
2022/01/17 05:22:35;;;;;;;8.23;0.63;;;;;;;8.47;98.96;101248.03;4948915;29;20032;-72
2022/01/17 05:25:05;;;;;;;3.50;0.60;;;;;;;8.39;100.00;101250.75;4948289;28;20385;-72
2022/01/17 05:27:30;;;;;;;0.30;0.30;;;;;;;8.43;99.60;101263.22;4948793;28;20038;-71
2022/01/17 05:29:55;;;;;;;3.35;1.08;;;;;;;8.44;99.72;101259.41;4948508;28;20095;-71
2022/01/17 05:32:21;;;;;;;1.35;0.38;;;;;;;8.54;100.00;101259.03;4949274;28;20488;-71
2022/01/17 05:34:47;;;;;;;1.98;0.88;;;;;;;8.46;100.00;101272.50;4948160;28;20027;-72
2022/01/17 05:37:16;;;;;;;1.40;0.43;;;;;;;8.56;99.05;101254.13;4947044;28;20047;-71
2022/01/17 05:39:42;;;;;;;6.10;0.57;;;;;;;8.52;99.90;101241.66;4946676;28;20039;-71
2022/01/17 05:42:17;;;;;;;11.32;0.50;;;;;;;8.47;99.81;101229.25;4962672;28;20055;-70
2022/01/17 05:44:44;;;;;;;0.93;0.28;;;;;;;8.43;100.00;101230.22;4947253;28;20469;-71
2022/01/17 05:47:10;;;;;;;0.50;0.50;;;;;;;8.49;100.00;101210.91;4949588;29;20396;-71
2022/01/17 05:49:36;;;;;;;1.60;0.43;;;;;;;8.55;100.00;101233.78;4947691;29;20094;-71
2022/01/17 05:52:01;;;;;;;2.45;0.73;;;;;;;8.63;100.00;101232.13;4945671;28;20114;-72
2022/01/17 05:54:27;;;;;;;2.33;0.35;;;;;;;8.52;100.00;101222.88;4955120;28;20034;-70
2022/01/17 05:56:52;;;;;;;4.03;0.38;;;;;;;8.53;100.00;101217.22;4943170;28;20452;-71
2022/01/17 05:59:18;;;;;;;9.10;1.17;;;;;;;8.51;100.00;101189.13;4947507;28;20031;-71
2022/01/17 06:01:44;;;;;;;3.38;1.05;;;;;;;8.51;100.00;101200.66;4961931;28;20035;-71
2022/01/17 06:04:10;;;;;;;0.77;0.47;;;;;;;8.63;100.00;101206.06;4952248;28;20416;-72
2022/01/17 06:06:35;;;;;;;7.00;0.60;;;;;;;8.60;100.00;101212.09;4943510;28;20038;-71
2022/01/17 06:09:01;;;;;;;1.23;0.50;;;;;;;8.53;100.00;101214.53;4942153;28;20048;-71
2022/01/17 06:11:26;;;;;;;4.82;0.47;;;;;;;8.44;100.00;101211.09;4947884;29;20448;-70
2022/01/17 06:13:52;;;;;;;1.33;0.68;;;;;;;8.51;100.00;101238.22;4944158;29;20030;-71
2022/01/17 06:16:17;;;;;;;10.32;0.63;;;;;;;8.48;100.00;101232.72;4933624;29;20036;-71
2022/01/17 06:18:43;;;;;;;3.05;0.80;;;;;;;8.51;100.00;101237.44;4939797;29;20419;-71
2022/01/17 06:21:11;;;;;;;2.22;0.70;;;;;;;8.62;100.00;101231.34;4945284;28;20408;-71
2022/01/17 06:23:36;;;;;;;4.65;0.30;;;;;;;8.64;100.00;101253.28;4949127;28;20047;-73
2022/01/17 06:26:02;;;;;;;2.72;0.70;;;;;;;8.57;100.00;101244.19;4959058;28;20043;-71
2022/01/17 06:28:28;;;;;;;0.50;0.43;;;;;;;8.63;100.00;101230.22;4966822;28;20035;-72
2022/01/17 06:30:53;;;;;;;0.28;0.28;;;;;;;8.67;100.00;101222.31;4962897;28;20035;-71
2022/01/17 06:33:18;;;;;;;6.57;1.23;;;;;;;8.73;100.00;101208.34;4987740;28;20035;-73
2022/01/17 06:35:44;;;;;;;3.55;0.60;;;;;;;8.65;100.00;101219.94;4942093;29;20043;-71
2022/01/17 06:38:09;;;;;;;2.05;0.60;;;;;;;8.81;100.00;101214.75;4947384;28;20121;-71
2022/01/17 06:40:35;;;;;;;6.30;0.80;;;;;;;8.74;100.00;101211.84;4958516;28;20106;-71
2022/01/17 06:43:00;;;;;;;4.82;0.73;;;;;;;8.67;100.00;101208.91;4948872;29;20035;-70
2022/01/17 06:45:26;;;;;;;7.40;0.82;;;;;;;8.75;100.00;101221.47;4956290;28;20090;-69
2022/01/17 06:47:51;;;;;;;2.95;0.60;;;;;;;8.76;100.00;101233.78;4955611;28;20098;-71
2022/01/17 06:50:17;;;;;;;2.78;0.98;;;;;;;8.61;100.00;101232.47;4954487;28;20046;-70
2022/01/17 06:52:46;;;;;;;6.03;1.73;;;;;;;8.66;100.00;101247.56;4957259;28;20126;-70
2022/01/17 06:55:11;;;;;;;9.27;1.08;;;;;;;8.74;100.00;101277.06;4959125;28;20078;-71
2022/01/17 06:57:37;;;;;;;5.72;0.68;;;;;;;8.75;100.00;101281.31;4972389;28;20094;-70
2022/01/17 07:00:06;;;;;;;2.35;0.75;;;;;;;8.81;100.00;101293.44;4953520;28;20035;-70
2022/01/17 07:02:32;;;;;;;5.82;0.93;;;;;;;8.71;100.00;101295.72;4951076;28;20035;-71
2022/01/17 07:04:57;;;;;;;0.77;0.43;;;;;;;8.64;100.00;101308.84;4965257;28;20034;-71
2022/01/17 07:07:22;;;;;;;3.22;0.98;;;;;;;8.71;100.00;101296.50;4962359;28;20043;-70
2022/01/17 07:09:48;;;;;;;2.75;1.42;;;;;;;8.63;100.00;101267.81;4960471;28;20650;-70
2022/01/17 07:12:13;;;;;;;6.38;0.65;;;;;;;8.69;100.00;101255.00;4962733;28;20082;-71
2022/01/17 07:14:41;;;;;;;6.47;0.45;;;;;;;8.71;100.00;101232.06;4978145;28;20384;-70
2022/01/17 07:17:11;;;;;;;2.10;0.55;;;;;;;8.67;100.00;101212.34;4965728;28;20030;-70
2022/01/17 07:19:40;;;;;;;1.85;0.68;;;;;;;8.66;100.00;101229.59;4958833;28;20030;-71
2022/01/17 07:22:06;;;;;;;6.25;0.55;;;;;;;8.67;100.00;101241.88;4951423;28;20404;-70
2022/01/17 07:24:33;;;;;;;6.40;0.75;;;;;;;8.71;100.00;101239.34;4966567;28;20444;-70
2022/01/17 07:26:58;;;;;;;2.47;0.70;;;;;;;8.68;100.00;101221.97;4964441;28;20027;-70
2022/01/17 07:29:24;;;;;;;5.70;1.02;;;;;;;8.66;100.00;101234.16;4966961;28;20042;-70
2022/01/17 07:31:50;;;;;;;3.78;1.08;;;;;;;8.71;100.00;101240.09;4960349;28;20400;-70
2022/01/17 07:34:16;;;;;;;4.55;0.75;;;;;;;8.63;100.00;101240.94;4981865;28;20031;-70
2022/01/17 07:36:41;;;;;;;10.45;1.50;;;;;;;8.71;100.00;101256.22;4947766;28;20047;-71
2022/01/17 07:39:07;;;;;;;3.95;0.77;;;;;;;8.69;100.00;101239.66;4952450;28;20027;-72
2022/01/17 07:41:32;;;;;;;2.78;0.88;;;;;;;8.71;100.00;101252.78;4937402;28;20055;-71
2022/01/17 07:44:00;;;;;;;3.60;0.77;;;;;;;8.80;100.00;101259.66;4964451;28;20039;-70
2022/01/17 07:46:47;;;;;;;7.47;1.02;;;;;;;8.89;100.00;101263.03;4951200;28;20408;-71
2022/01/17 07:49:19;;;;;;;7.30;0.80;;;;;;;8.87;100.00;101243.78;4970623;28;20050;-71
2022/01/17 07:51:47;;;;;;;2.42;0.77;;;;;;;8.88;100.00;101271.44;4953444;29;20082;-70
2022/01/17 07:54:15;;;;;;;2.75;2.15;;;;;;;8.88;100.00;101268.75;4948288;28;20377;-70
2022/01/17 07:56:42;;;;;;;4.60;0.68;;;;;;;8.95;100.00;101287.81;4947471;28;20043;-71
2022/01/17 07:59:10;;;;;;;2.53;0.60;;;;;;;8.93;100.00;101285.44;4955804;28;20039;-71
2022/01/17 08:01:37;;;;;;;1.95;0.68;;;;;;;8.95;100.00;101293.19;4950173;28;20043;-71
2022/01/17 08:04:04;;;;;;;2.50;1.00;;;;;;;8.89;100.00;101295.28;4969065;28;20047;-71
2022/01/17 08:06:30;;;;;;;1.55;0.50;;;;;;;8.82;100.00;101313.03;4950895;28;20062;-71
2022/01/17 08:08:58;;;;;;;1.42;0.47;;;;;;;8.96;100.00;101330.44;4948101;28;20515;-71
2022/01/17 08:11:24;;;;;;;4.38;1.13;;;;;;;9.02;100.00;101315.72;4959147;28;20059;-71
2022/01/17 08:13:49;;;;;;;0.82;0.45;;;;;;;9.01;100.00;101327.59;4946962;29;20097;-71
2022/01/17 08:16:15;;;;;;;1.55;0.93;;;;;;;8.98;100.00;101316.72;4952012;29;20035;-71
2022/01/17 08:18:42;;;;;;;0.93;0.55;;;;;;;8.96;100.00;101297.44;4956274;28;20032;-71
2022/01/17 08:21:07;;;;;;;4.13;0.80;;;;;;;9.06;100.00;101313.16;4945596;28;20074;-71
2022/01/17 08:23:33;;;;;;;1.60;0.82;;;;;;;9.03;100.00;101286.94;4944508;28;20106;-71
2022/01/17 08:25:58;;;;;;;6.25;0.80;;;;;;;9.04;100.00;101286.63;4965842;28;20115;-70
2022/01/17 08:28:24;;;;;;;0.75;0.35;;;;;;;8.90;100.00;101272.66;4944786;28;20066;-70
2022/01/17 08:30:50;;;;;;;6.25;0.65;;;;;;;8.91;100.00;101282.31;4946253;28;20185;-71
2022/01/17 08:33:15;;;;;;;1.17;0.47;;;;;;;8.89;100.00;101281.84;4951898;28;20047;-71
2022/01/17 08:35:41;;;;;;;5.70;0.70;;;;;;;9.01;100.00;101295.34;4949096;28;20043;-70
2022/01/17 08:38:06;;;;;;;1.27;0.60;;;;;;;8.96;100.00;101295.53;4950737;28;20035;-71
2022/01/17 08:40:32;;;;;;;7.13;0.70;;;;;;;9.01;100.00;101324.91;4972801;28;20043;-70
2022/01/17 08:42:57;;;;;;;2.65;0.68;;;;;;;8.84;100.00;101311.59;4958621;28;20039;-71
2022/01/17 08:45:24;;;;;;;2.75;1.13;;;;;;;8.94;100.00;101315.78;4954659;28;20074;-70
2022/01/17 08:47:51;;;;;;;6.55;0.93;;;;;;;8.93;100.00;101330.31;4950607;28;20085;-71
2022/01/17 08:50:19;;;;;;;5.93;1.23;;;;;;;9.04;100.00;101318.84;4957099;28;20032;-70
2022/01/17 08:52:46;;;;;;;2.67;0.80;;;;;;;9.05;100.00;101309.69;4955098;28;20512;-71
2022/01/17 08:55:12;;;;;;;6.25;1.02;;;;;;;9.08;100.00;101330.53;4952884;28;20593;-71
2022/01/17 08:57:38;;;;;;;8.80;1.73;;;;;;;9.12;100.00;101336.03;4954468;28;20042;-71
2022/01/17 09:00:08;;;;;;;2.38;0.28;;;;;;;9.16;100.00;101342.31;4954193;28;20050;-71
2022/01/17 09:02:34;;;;;;;6.43;2.50;;;;;;;9.23;100.00;101347.19;4963816;28;20074;-71
2022/01/17 09:04:59;;;;;;;3.10;1.05;;;;;;;9.23;100.00;101357.94;4960240;28;20086;-72
2022/01/17 09:07:25;;;;;;;5.00;0.70;;;;;;;9.23;100.00;101336.44;4955614;28;20189;-70
2022/01/17 09:09:50;;;;;;;2.42;1.13;;;;;;;9.25;100.00;101350.31;4952360;28;20043;-71
2022/01/17 09:12:16;;;;;;;3.28;0.95;;;;;;;9.28;100.00;101352.34;4947695;29;20054;-71
2022/01/17 09:14:42;;;;;;;4.82;1.23;;;;;;;9.31;100.00;101360.53;4952479;28;20203;-70
2022/01/17 09:17:09;;;;;;;12.20;2.28;;;;;;;9.26;100.00;101362.63;4951091;28;20050;-70
2022/01/17 09:19:36;;;;;;;3.00;1.75;;;;;;;9.28;100.00;101365.78;4951617;28;20126;-71
2022/01/17 09:22:03;;;;;;;8.20;1.00;;;;;;;9.33;100.00;101389.78;4958399;28;20109;-71
2022/01/17 09:24:28;;;;;;;4.95;0.82;;;;;;;9.28;100.00;101408.78;4954717;28;20031;-71
2022/01/17 09:26:56;;;;;;;2.10;0.82;;;;;;;9.42;100.00;101420.06;4954733;28;20113;-70
2022/01/17 09:29:21;;;;;;;2.90;0.73;;;;;;;9.45;100.00;101440.91;4949858;28;20039;-70
2022/01/17 09:31:47;;;;;;;8.07;1.08;;;;;;;9.31;100.00;101426.94;4954640;28;20106;-71
2022/01/17 09:34:13;;;;;;;1.25;1.15;;;;;;;9.27;100.00;101428.72;4947615;28;20034;-71
2022/01/17 09:36:39;;;;;;;6.13;0.90;;;;;;;9.18;100.00;101427.97;4951622;28;20039;-71
2022/01/17 09:39:06;;;;;;;3.58;0.38;;;;;;;9.09;100.00;101426.13;4948743;28;20035;-70
2022/01/17 09:41:32;;;;;;;1.80;0.98;;;;;;;9.06;100.00;101466.28;4953422;28;20868;-71
2022/01/17 09:43:58;;;;;;;2.42;0.50;;;;;;;8.97;100.00;101466.34;4963888;28;20118;-71
2022/01/17 09:46:27;;;;;;;1.20;0.47;;;;;;;8.89;100.00;101480.59;4951964;29;20043;-71
2022/01/17 09:49:01;;;;;;;3.83;0.30;;;;;;;8.96;100.00;101507.72;4965283;28;20130;-71
2022/01/17 09:51:41;;;;;;;2.47;0.77;;;;;;;8.97;100.00;101495.09;4950933;28;20039;-71
2022/01/17 09:54:08;;;;;;;1.60;0.52;;;;;;;9.03;100.00;101505.34;4963913;28;20385;-70
2022/01/17 09:56:34;;;;;;;1.75;0.60;;;;;;;8.94;100.00;101509.94;4951153;28;20027;-70
2022/01/17 09:59:02;;;;;;;3.67;0.47;;;;;;;8.94;100.00;101504.56;4951613;28;20043;-71
2022/01/17 10:01:28;;;;;;;4.63;1.27;;;;;;;8.84;100.00;101513.00;4948686;29;20051;-71
2022/01/17 10:03:56;;;;;;;6.65;0.70;;;;;;;8.84;100.00;101514.91;4946676;28;20043;-72
2022/01/17 10:06:23;;;;;;;2.20;0.50;;;;;;;8.86;100.00;101521.53;4943853;28;20550;-72
2022/01/17 10:09:07;;;;;;;5.05;0.38;;;;;;;8.99;100.00;101517.03;4961176;28;20044;-71
2022/01/17 10:11:33;;;;;;;5.07;0.43;;;;;;;8.95;100.00;101508.84;4942196;29;20673;-72
2022/01/17 10:13:58;;;;;;;4.45;0.70;;;;;;;9.17;98.66;101504.31;4938840;29;20118;-71
2022/01/17 10:16:25;;;;;;;2.35;0.55;;;;;;;9.23;97.74;101519.16;4941794;28;20354;-72
2022/01/17 10:19:00;;;;;;;0.20;0.20;;;;;;;9.30;97.92;101522.13;4953108;28;20102;-70
2022/01/17 10:22:19;;;;;;;0.25;0.25;;;;;;;9.36;96.84;101527.00;4963665;28;20039;-69
2022/01/17 10:24:57;;;;;;;0.80;0.50;;;;;;;9.47;94.56;101520.13;4954159;28;20054;-72
2022/01/17 10:28:20;;;;;;;4.82;0.63;;;;;;;9.47;94.33;101522.81;4952995;28;20048;-71
2022/01/17 10:35:26;;;;;;;6.80;0.65;;;;;;;9.43;92.55;101548.75;4953530;28;20122;-71
2022/01/17 10:38:18;;;;;;;0.52;0.22;;;;;;;9.36;92.49;101547.69;4964360;28;20051;-72
2022/01/17 10:40:53;;;;;;;4.38;0.60;;;;;;;9.39;93.22;101576.63;4943597;28;20035;-71
2022/01/17 10:43:19;;;;;;;1.23;0.77;;;;;;;9.31;92.33;101582.84;4946519;28;20039;-72
2022/01/17 10:45:44;;;;;;;2.10;0.20;;;;;;;9.22;91.27;101568.63;4952819;29;20090;-69
2022/01/17 10:48:10;;;;;;;7.65;0.60;;;;;;;9.20;92.07;101573.53;4952397;28;20488;-69
2022/01/17 10:50:54;;;;;;;4.90;0.40;;;;;;;9.07;90.82;101584.19;4967005;28;20035;-72
2022/01/17 10:53:19;;;;;;;2.35;0.50;;;;;;;9.09;92.17;101581.97;4952746;28;20050;-72
2022/01/17 10:55:51;;;;;;;2.22;0.30;;;;;;;9.07;92.80;101597.63;4955061;28;20046;-71
2022/01/17 10:58:21;;;;;;;5.82;0.60;;;;;;;9.05;92.77;101613.28;4965576;28;20673;-69
2022/01/17 11:00:50;;;;;;;1.75;0.55;;;;;;;9.12;92.56;101622.75;4949728;28;20061;-72
2022/01/17 11:03:18;;;;;;;0.57;0.17;;;;;;;9.13;91.86;101651.97;4954872;28;20043;-72
2022/01/17 11:05:47;;;;;;;4.45;0.80;;;;;;;9.05;90.49;101650.88;4953250;28;20048;-72
2022/01/17 11:08:17;;;;;;;1.10;0.22;;;;;;;9.05;92.16;101656.25;4964913;28;20051;-73
2022/01/17 11:10:50;;;;;;;5.53;0.60;;;;;;;9.06;91.68;101648.97;4955249;28;20039;-72
2022/01/17 11:13:17;;;;;;;1.65;0.52;;;;;;;9.03;92.25;101642.34;4949434;28;20035;-73
2022/01/17 11:15:49;;;;;;;1.23;0.30;;;;;;;9.15;90.02;101647.06;4956782;28;20031;-72
2022/01/17 11:18:22;;;;;;;0.55;0.30;;;;;;;8.92;87.75;101665.25;4954077;28;20071;-72
2022/01/17 11:20:50;;;;;;;1.98;0.47;;;;;;;8.86;87.24;101657.72;4952622;28;20066;-71
2022/01/17 11:23:18;;;;;;;0.75;0.30;;;;;;;8.84;87.12;101649.97;4957360;28;20066;-72
2022/01/17 11:25:45;;;;;;;0.13;0.13;;;;;;;8.85;86.19;101645.38;4955554;28;20046;-72
2022/01/17 11:28:15;;;;;;;2.63;0.50;;;;;;;8.72;85.79;101641.75;4954703;28;20035;-71
2022/01/17 11:30:44;;;;;;;1.08;0.40;;;;;;;8.81;83.67;101655.16;4954566;28;20047;-72
2022/01/17 11:33:11;;;;;;;3.65;0.75;;;;;;;8.86;83.79;101671.13;4969429;28;20118;-72
2022/01/17 11:35:41;;;;;;;4.07;0.80;;;;;;;8.89;85.34;101663.22;4948900;28;20051;-72
2022/01/17 11:38:11;;;;;;;0.67;0.30;;;;;;;8.98;82.29;101672.06;4960899;28;20205;-72
2022/01/17 11:40:39;;;;;;;1.35;0.90;;;;;;;8.94;81.71;101689.16;4953966;28;20298;-72
2022/01/17 11:43:33;;;;;;;2.40;0.70;;;;;;;8.97;82.60;101694.66;4952716;28;20039;-71
2022/01/17 11:46:02;;;;;;;3.13;0.63;;;;;;;8.96;82.33;101687.69;4939115;28;20149;-73
2022/01/17 11:48:31;;;;;;;1.30;0.40;;;;;;;9.02;81.66;101702.56;4948286;28;21289;-73